Time;durP1;ratioP1;P1;durP2;ratioP2;P2;SDS_P1;SDS_P2;PMS_P1;PMS_P2;Temp;Humidity;BMP_temperature;BMP_pressure;BME280_temperature;BME280_humidity;BME280_pressure;Samples;Min_cycle;Max_cycle;Signal;HPM_P1;HPM_P2
2022/11/18 06:49:05;;;;;;;1.48;0.88;;;;;;;6.22;100.00;97533.41;5107807;27;20369;-80
2022/11/18 06:51:33;;;;;;;1.35;1.08;;;;;;;6.16;100.00;97523.38;5109568;28;20047;-80
2022/11/18 06:53:59;;;;;;;1.13;0.70;;;;;;;6.37;100.00;97534.13;5107457;28;20143;-80
2022/11/18 06:56:26;;;;;;;2.42;1.20;;;;;;;6.27;100.00;97522.81;5107839;28;20051;-80
2022/11/18 06:58:53;;;;;;;2.22;0.90;;;;;;;6.39;100.00;97544.72;5107384;28;20066;-80
2022/11/18 07:01:22;;;;;;;0.90;0.77;;;;;;;6.47;100.00;97551.81;5108174;28;20054;-80
2022/11/18 07:03:49;;;;;;;5.97;1.10;;;;;;;6.54;100.00;97558.91;5106014;28;20048;-79
2022/11/18 07:06:19;;;;;;;4.15;0.90;;;;;;;6.41;100.00;97536.41;5108040;28;20075;-80
2022/11/18 07:08:46;;;;;;;1.05;0.70;;;;;;;6.54;100.00;97558.91;5108182;28;20123;-80
2022/11/18 07:11:14;;;;;;;3.10;1.10;;;;;;;6.43;100.00;97550.53;5107584;28;20066;-80
2022/11/18 07:13:41;;;;;;;0.60;0.55;;;;;;;6.36;100.00;97550.50;5106211;28;20055;-79
2022/11/18 07:16:10;;;;;;;1.02;0.70;;;;;;;6.43;100.00;97558.63;5107953;28;20371;-80
2022/11/18 07:18:39;;;;;;;2.47;0.70;;;;;;;6.48;100.00;97564.28;5106686;28;20051;-80
2022/11/18 07:21:07;;;;;;;0.93;0.70;;;;;;;6.56;100.00;97569.53;5107771;28;20040;-80
2022/11/18 07:23:35;;;;;;;1.75;0.70;;;;;;;6.57;100.00;97576.59;5107416;28;20300;-80
2022/11/18 07:26:03;;;;;;;0.65;0.65;;;;;;;6.51;100.00;97570.13;5103243;28;20043;-80
2022/11/18 07:28:30;;;;;;;0.50;0.50;;;;;;;6.38;100.00;97564.63;5102498;28;20541;-80
2022/11/18 07:31:01;;;;;;;1.52;0.88;;;;;;;6.45;100.00;97580.88;5105594;28;20056;-81
2022/11/18 07:33:28;;;;;;;4.10;0.95;;;;;;;6.55;100.00;97587.59;5104883;28;20050;-80
2022/11/18 07:35:55;;;;;;;1.38;0.75;;;;;;;6.55;100.00;97576.78;5098260;28;20062;-80
2022/11/18 07:38:21;;;;;;;2.50;0.80;;;;;;;6.61;100.00;97583.28;5107965;28;20040;-80
2022/11/18 07:40:49;;;;;;;2.10;0.80;;;;;;;6.68;100.00;97604.91;5107157;28;20051;-80
2022/11/18 07:43:16;;;;;;;0.93;0.70;;;;;;;6.66;100.00;97610.50;5107012;28;20398;-80
2022/11/18 07:45:42;;;;;;;0.77;0.43;;;;;;;6.60;100.00;97596.97;5107287;28;20479;-80
2022/11/18 07:48:09;;;;;;;1.15;0.73;;;;;;;6.61;100.00;97606.72;5104273;28;20075;-80
2022/11/18 07:50:35;;;;;;;0.55;0.55;;;;;;;6.76;100.00;97623.66;5106172;28;20050;-80
2022/11/18 07:53:02;;;;;;;1.70;0.88;;;;;;;6.63;100.00;97608.22;5106362;28;20388;-81
2022/11/18 07:55:28;;;;;;;1.13;0.70;;;;;;;6.64;100.00;97604.47;5107153;28;20406;-80
2022/11/18 07:57:57;;;;;;;0.80;0.80;;;;;;;6.72;100.00;97625.09;5107029;28;20411;-80
2022/11/18 08:00:23;;;;;;;0.82;0.68;;;;;;;6.63;100.00;97621.72;5092960;28;20408;-80
2022/11/18 08:02:50;;;;;;;1.83;0.98;;;;;;;6.65;100.00;97621.50;5091493;28;20052;-80
2022/11/18 08:05:17;;;;;;;0.95;0.73;;;;;;;6.69;100.00;97633.59;5093406;28;20051;-80
2022/11/18 08:07:44;;;;;;;1.45;0.80;;;;;;;6.57;100.00;97614.41;5092090;28;20044;-80
2022/11/18 08:10:11;;;;;;;4.28;2.20;;;;;;;6.78;100.00;97640.50;5093152;28;20044;-80
2022/11/18 08:12:38;;;;;;;5.50;1.92;;;;;;;6.86;100.00;97645.72;5092628;28;20052;-80
2022/11/18 08:15:06;;;;;;;1.08;0.98;;;;;;;6.67;100.00;97639.19;5093045;28;20044;-80
2022/11/18 08:17:33;;;;;;;1.13;0.73;;;;;;;6.67;100.00;97625.69;5091769;28;20054;-80
2022/11/18 08:20:00;;;;;;;1.10;0.80;;;;;;;6.70;100.00;97628.00;5093207;28;20044;-81
2022/11/18 08:22:26;;;;;;;0.57;0.57;;;;;;;6.93;100.00;97651.19;5092588;28;20044;-81
2022/11/18 08:24:53;;;;;;;1.60;0.88;;;;;;;6.80;100.00;97633.03;5091437;28;20506;-80
2022/11/18 08:27:20;;;;;;;1.02;0.70;;;;;;;6.77;100.00;97646.94;5092819;28;20055;-81
2022/11/18 08:29:46;;;;;;;2.03;0.85;;;;;;;6.85;100.00;97651.34;5092088;28;20055;-80
2022/11/18 08:32:14;;;;;;;1.02;0.60;;;;;;;7.00;100.00;97657.47;5082281;28;20036;-81
2022/11/18 08:34:41;;;;;;;0.55;0.50;;;;;;;6.90;100.00;97654.28;5092638;28;20052;-81
2022/11/18 08:37:07;;;;;;;1.25;1.05;;;;;;;6.91;100.00;97658.69;5092640;28;20048;-81
2022/11/18 08:39:34;;;;;;;2.42;0.85;;;;;;;6.88;100.00;97646.38;5092923;28;20052;-80
2022/11/18 08:42:00;;;;;;;2.83;1.08;;;;;;;6.93;100.00;97656.59;5092607;28;20058;-81
2022/11/18 08:44:27;;;;;;;1.48;1.08;;;;;;;6.86;100.00;97655.72;5092440;28;20044;-81
2022/11/18 08:46:53;;;;;;;4.10;1.10;;;;;;;6.81;100.00;97667.13;5091157;28;20386;-80
2022/11/18 08:49:21;;;;;;;0.63;0.60;;;;;;;6.90;100.00;97660.53;5093785;28;20040;-80
2022/11/18 08:51:48;;;;;;;0.88;0.60;;;;;;;6.99;100.00;97682.81;5088962;28;20861;-80
2022/11/18 08:54:15;;;;;;;0.65;0.57;;;;;;;6.90;100.00;97663.22;5071630;28;20135;-81
2022/11/18 08:56:41;;;;;;;0.45;0.45;;;;;;;6.83;100.00;97662.34;5072150;28;20052;-81
2022/11/18 08:59:08;;;;;;;0.75;0.70;;;;;;;7.14;100.00;97676.47;5072729;28;20047;-81
2022/11/18 09:01:36;;;;;;;1.15;0.80;;;;;;;7.12;100.00;97681.22;5084466;28;20044;-81
2022/11/18 09:04:02;;;;;;;1.10;0.93;;;;;;;7.08;100.00;97687.03;5087909;28;20043;-80
2022/11/18 09:06:31;;;;;;;1.38;0.85;;;;;;;7.18;100.00;97689.38;5092253;28;20052;-80
2022/11/18 09:08:57;;;;;;;1.52;0.98;;;;;;;7.07;100.00;97688.06;5092022;28;20548;-80
2022/11/18 09:11:26;;;;;;;3.67;1.58;;;;;;;6.97;100.00;97686.75;5091153;28;20419;-81
2022/11/18 09:13:54;;;;;;;0.95;0.85;;;;;;;6.95;100.00;97686.13;5091457;28;20450;-80
2022/11/18 09:16:22;;;;;;;2.00;1.00;;;;;;;7.08;100.00;97692.44;5091986;28;20051;-80
2022/11/18 09:18:49;;;;;;;0.85;0.85;;;;;;;6.84;100.00;97674.81;5090896;28;20109;-80
2022/11/18 09:21:17;;;;;;;1.40;1.20;;;;;;;7.07;100.00;97706.16;5090350;28;20052;-80
2022/11/18 09:23:45;;;;;;;1.52;1.08;;;;;;;7.12;100.00;97708.25;5090831;28;20050;-81
2022/11/18 09:26:13;;;;;;;1.85;1.20;;;;;;;6.95;100.00;97688.81;5089585;28;20044;-81
2022/11/18 09:28:40;;;;;;;1.30;0.98;;;;;;;7.10;100.00;97708.44;5088967;28;20042;-80
2022/11/18 09:31:11;;;;;;;1.70;1.05;;;;;;;7.09;100.00;97698.66;5090237;28;20056;-81
2022/11/18 09:33:39;;;;;;;1.85;1.63;;;;;;;7.15;100.00;97706.00;5091431;28;20096;-82
2022/11/18 09:36:11;;;;;;;1.00;0.90;;;;;;;6.99;100.00;97690.94;5091664;28;20044;-81
2022/11/18 09:38:38;;;;;;;1.75;1.30;;;;;;;7.18;100.00;97727.22;5091625;28;20052;-79
2022/11/18 09:41:17;;;;;;;3.05;1.23;;;;;;;7.07;100.00;97698.03;5091731;28;20047;-78
2022/11/18 09:43:59;;;;;;;4.30;1.30;;;;;;;7.14;100.00;97717.84;5089609;28;20517;-81
2022/11/18 09:46:39;;;;;;;1.88;1.33;;;;;;;7.16;100.00;97699.53;5090222;28;20051;-80
2022/11/18 09:49:14;;;;;;;1.27;0.95;;;;;;;7.21;100.00;97717.88;5071388;28;20053;-80
2022/11/18 09:51:43;;;;;;;1.80;1.48;;;;;;;7.12;100.00;97702.84;5071271;28;20048;-80
2022/11/18 09:54:31;;;;;;;1.38;1.10;;;;;;;7.28;100.00;97724.16;5087224;28;20043;-81
2022/11/18 09:56:59;;;;;;;1.50;1.10;;;;;;;7.26;100.00;97718.94;5090109;28;20051;-80
2022/11/18 09:59:30;;;;;;;1.98;0.82;;;;;;;7.23;100.00;97727.44;5091283;28;20139;-80
2022/11/18 10:02:02;;;;;;;0.50;0.50;;;;;;;7.26;100.00;97726.22;5089965;28;20048;-80
2022/11/18 10:04:29;;;;;;;0.82;0.70;;;;;;;7.25;100.00;97711.03;5091103;28;20462;-80
2022/11/18 10:06:57;;;;;;;4.40;1.08;;;;;;;7.42;100.00;97725.91;5090946;28;20083;-80
2022/11/18 10:09:30;;;;;;;1.45;0.95;;;;;;;7.29;100.00;97706.06;5091003;28;20403;-80
2022/11/18 10:12:14;;;;;;;2.83;1.45;;;;;;;7.24;100.00;97721.03;5089768;28;20055;-80
2022/11/18 10:15:08;;;;;;;2.65;1.17;;;;;;;7.30;100.00;97735.63;5090582;28;20058;-80
2022/11/18 10:17:44;;;;;;;1.98;1.40;;;;;;;7.33;100.00;97734.38;5091186;28;20055;-81
2022/11/18 10:20:28;;;;;;;1.98;1.23;;;;;;;7.29;100.00;97723.13;5089484;28;20048;-81
2022/11/18 10:22:58;;;;;;;1.80;1.30;;;;;;;7.38;100.00;97734.63;5089688;28;20047;-81
2022/11/18 10:25:25;;;;;;;2.92;1.80;;;;;;;7.32;100.00;97741.66;5089615;28;20554;-80
2022/11/18 10:27:56;;;;;;;1.35;1.20;;;;;;;7.49;100.00;97754.84;5090238;28;20052;-81
2022/11/18 10:30:24;;;;;;;2.33;1.27;;;;;;;7.56;100.00;97751.13;5090877;28;20054;-80
2022/11/18 10:32:56;;;;;;;1.85;1.30;;;;;;;7.60;100.00;97744.31;5087682;28;20533;-82
2022/11/18 10:35:27;;;;;;;2.70;1.48;;;;;;;7.77;100.00;97750.19;5090640;28;20225;-81
2022/11/18 10:38:04;;;;;;;2.72;1.73;;;;;;;7.80;100.00;97741.69;5089836;28;20040;-81
2022/11/18 10:40:33;;;;;;;4.25;1.50;;;;;;;7.66;100.00;97737.22;5089682;28;20047;-81
2022/11/18 10:43:01;;;;;;;1.40;1.13;;;;;;;7.75;100.00;97727.06;5089338;28;20539;-80
2022/11/18 10:45:30;;;;;;;2.58;1.50;;;;;;;7.91;100.00;97747.56;5090251;28;20056;-82
2022/11/18 10:48:00;;;;;;;2.60;1.63;;;;;;;7.94;100.00;97760.66;5090346;28;20058;-82
2022/11/18 10:50:33;;;;;;;2.35;1.60;;;;;;;7.83;100.00;97737.75;5090625;28;20048;-81
2022/11/18 10:53:00;;;;;;;2.25;1.20;;;;;;;7.79;100.00;97747.28;5086865;28;20055;-81
2022/11/18 10:55:27;;;;;;;2.25;1.60;;;;;;;7.83;100.00;97737.75;5090271;28;20122;-81
2022/11/18 10:57:58;;;;;;;1.85;1.40;;;;;;;7.83;100.00;97726.91;5090235;28;20048;-81
2022/11/18 11:00:41;;;;;;;1.90;1.50;;;;;;;7.87;100.00;97746.28;5090303;28;20052;-81
2022/11/18 11:03:33;;;;;;;2.75;1.33;;;;;;;7.95;100.00;97751.53;5087031;28;20040;-78
2022/11/18 11:06:23;;;;;;;2.78;1.60;;;;;;;8.01;100.00;97750.72;5083059;28;20044;-81
2022/11/18 11:08:50;;;;;;;;;;;;;;;7.93;100.00;97754.44;5090504;28;20459;-81
2022/11/18 11:11:25;;;;;;;7.68;2.92;;;;;;;7.79;100.00;97733.75;5090481;28;19970;-81
2022/11/18 11:13:54;;;;;;;6.85;2.67;;;;;;;7.78;100.00;97732.94;5089625;28;20087;-81
2022/11/18 11:16:23;;;;;;;1.75;1.00;;;;;;;7.78;100.00;97730.22;5090264;28;20139;-81
2022/11/18 11:18:56;;;;;;;5.82;1.92;;;;;;;7.92;100.00;97744.63;5089592;28;20091;-81
2022/11/18 11:21:23;;;;;;;2.13;1.50;;;;;;;7.96;100.00;97748.63;5089358;28;20080;-81
2022/11/18 11:23:50;;;;;;;1.52;1.13;;;;;;;8.03;100.00;97761.34;5089120;28;20499;-82
2022/11/18 11:26:23;;;;;;;1.67;1.00;;;;;;;8.06;100.00;97769.88;5090543;28;20138;-81
2022/11/18 11:28:58;;;;;;;1.58;1.20;;;;;;;8.15;100.00;97751.59;5090143;28;20131;-81
2022/11/18 11:31:35;;;;;;;2.53;1.45;;;;;;;8.40;100.00;97768.09;5088546;28;20466;-81
2022/11/18 11:34:11;;;;;;;2.80;1.15;;;;;;;8.17;100.00;97748.66;5089201;28;20505;-81
2022/11/18 11:36:47;;;;;;;4.03;1.20;;;;;;;8.14;100.00;97758.88;5094275;28;20040;-81
2022/11/18 11:39:40;;;;;;;2.75;1.48;;;;;;;8.29;100.00;97763.28;5092648;28;20044;-81
2022/11/18 11:42:19;;;;;;;1.77;1.30;;;;;;;8.29;100.00;97772.22;5073328;28;20048;-81
2022/11/18 11:44:59;;;;;;;6.20;1.50;;;;;;;8.30;100.00;97748.69;5073629;28;20183;-81
2022/11/18 11:47:48;;;;;;;3.83;1.38;;;;;;;8.30;100.00;97759.53;5085905;28;20419;-82
2022/11/18 11:50:22;;;;;;;3.13;1.33;;;;;;;8.27;100.00;97759.94;5088394;28;20046;-82
2022/11/18 11:53:00;;;;;;;5.18;1.42;;;;;;;8.38;100.00;97747.69;5092956;28;20044;-82
2022/11/18 11:55:35;;;;;;;1.33;1.17;;;;;;;8.44;100.00;97771.25;5093674;28;20048;-82
2022/11/18 11:58:14;;;;;;;1.63;1.52;;;;;;;8.59;100.00;97755.66;5093724;28;20541;-81
2022/11/18 12:00:45;;;;;;;1.90;1.20;;;;;;;8.66;100.00;97770.03;5092508;28;20127;-81
2022/11/18 12:03:30;;;;;;;7.82;1.58;;;;;;;8.48;100.00;97767.09;5089532;28;20044;-81
2022/11/18 12:05:56;;;;;;;2.42;1.42;;;;;;;8.47;100.00;97768.13;5093291;28;20388;-81
2022/11/18 12:08:25;;;;;;;6.55;1.67;;;;;;;8.57;100.00;97776.69;5093665;28;20050;-81
2022/11/18 12:10:57;;;;;;;10.65;1.63;;;;;;;8.59;100.00;97765.66;5093278;28;20055;-81
2022/11/18 12:13:36;;;;;;;3.97;1.70;;;;;;;8.73;100.00;97774.63;5093246;28;20052;-81
2022/11/18 12:16:15;;;;;;;1.33;1.20;;;;;;;8.58;100.00;97782.94;5092380;28;20043;-82
2022/11/18 12:18:49;;;;;;;4.63;1.60;;;;;;;8.70;100.00;97784.00;5092154;28;20044;-82
2022/11/18 12:21:52;;;;;;;3.25;1.73;;;;;;;8.76;100.00;97785.06;5092878;28;20048;-81
2022/11/18 12:24:30;;;;;;;2.78;1.55;;;;;;;8.94;100.00;97777.16;5072613;28;20412;-81
2022/11/18 12:26:58;;;;;;;1.95;1.45;;;;;;;8.80;100.00;97765.47;5072785;28;20044;-81
2022/11/18 12:29:27;;;;;;;1.80;0.88;;;;;;;9.04;100.00;97777.53;5072858;28;20040;-81
2022/11/18 12:31:55;;;;;;;4.15;0.82;;;;;;;8.86;100.00;97770.03;5084433;28;21233;-81
2022/11/18 12:34:39;;;;;;;2.10;1.13;;;;;;;8.90;100.00;97778.59;5091384;28;20052;-81
2022/11/18 12:37:46;;;;;;;1.73;0.68;;;;;;;8.82;100.00;97768.81;5093005;28;20044;-80
2022/11/18 12:40:42;;;;;;;1.80;0.70;;;;;;;8.82;100.00;97795.06;5092115;28;20411;-82
2022/11/18 12:43:57;;;;;;;1.27;0.82;;;;;;;8.85;100.00;97797.34;5089115;28;20118;-81
2022/11/18 12:46:55;;;;;;;4.38;1.10;;;;;;;8.98;100.00;97797.38;5088339;28;20048;-81
2022/11/18 12:50:11;;;;;;;1.00;0.88;;;;;;;8.96;100.00;97799.47;5092713;28;20276;-82
2022/11/18 12:52:51;;;;;;;2.63;1.40;;;;;;;8.94;100.00;97785.28;5089333;28;20403;-81
2022/11/18 12:55:25;;;;;;;3.88;2.05;;;;;;;8.86;100.00;97780.88;5091840;28;20558;-81
2022/11/18 12:57:52;;;;;;;5.05;1.75;;;;;;;8.95;100.00;97791.53;5091372;28;20044;-82
2022/11/18 13:00:29;;;;;;;13.32;1.90;;;;;;;8.88;100.00;97790.69;5092502;28;20055;-81
2022/11/18 13:02:58;;;;;;;2.47;1.10;;;;;;;9.03;100.00;97794.03;5091602;28;20048;-81
2022/11/18 13:05:26;;;;;;;2.40;1.23;;;;;;;8.88;100.00;97798.81;5091149;28;20048;-82
2022/11/18 13:08:13;;;;;;;6.00;1.08;;;;;;;8.68;100.00;97819.41;5092109;28;20063;-82
2022/11/18 13:10:45;;;;;;;3.92;1.35;;;;;;;8.56;100.00;97809.41;5090950;28;20402;-82
2022/11/18 13:13:22;;;;;;;4.43;1.70;;;;;;;8.44;100.00;97801.03;5091528;28;20044;-81
2022/11/18 13:18:34;;;;;;;5.88;1.25;;;;;;;8.58;100.00;97808.19;5090766;28;20059;-81
2022/11/18 13:23:50;;;;;;;1.75;1.02;;;;;;;8.50;100.00;97805.63;5091921;28;20085;-81
2022/11/18 13:23:51;;;;;;;5.85;1.40;;;;;;;8.43;100.00;97796.63;5091253;28;20105;-82
2022/11/18 13:26:23;;;;;;;6.35;2.00;;;;;;;8.48;100.00;97803.13;5091004;28;20097;-81
2022/11/18 13:29:06;;;;;;;3.47;2.25;;;;;;;8.40;100.00;97794.31;5091391;28;20055;-82
2022/11/18 13:31:38;;;;;;;7.47;3.20;;;;;;;8.41;100.00;97801.44;5089466;28;20500;-82
2022/11/18 13:34:16;;;;;;;8.07;3.40;;;;;;;8.33;100.00;97805.16;5089736;28;20040;-82
2022/11/18 13:36:44;;;;;;;13.45;5.05;;;;;;;8.59;100.00;97827.97;5091398;28;20058;-82
2022/11/18 13:39:22;;;;;;;12.23;4.72;;;;;;;8.50;100.00;97820.00;5090541;28;20040;-81
2022/11/18 13:41:58;;;;;;;7.78;2.25;;;;;;;8.43;100.00;97818.28;5091285;28;20075;-82
2022/11/18 13:44:27;;;;;;;7.63;4.00;;;;;;;8.19;100.00;97795.31;5091282;28;20044;-82
2022/11/18 13:46:59;;;;;;;5.68;1.98;;;;;;;8.33;100.00;97808.69;5090816;28;20090;-81
2022/11/18 13:49:40;;;;;;;5.05;1.40;;;;;;;8.37;100.00;97816.41;5090307;28;20051;-81
2022/11/18 13:52:13;;;;;;;2.20;1.30;;;;;;;8.30;100.00;97813.69;5087374;28;20050;-81
2022/11/18 13:54:42;;;;;;;1.95;1.33;;;;;;;8.29;100.00;97834.50;5090336;28;20055;-86
2022/11/18 13:57:17;;;;;;;3.13;2.00;;;;;;;8.23;100.00;97815.53;5092849;28;20502;-84
2022/11/18 13:59:45;;;;;;;2.88;1.23;;;;;;;8.26;100.00;97836.78;5093807;28;20055;-85
2022/11/18 14:02:14;;;;;;;6.55;1.52;;;;;;;8.15;100.00;97806.53;5093478;28;20056;-86
2022/11/18 14:04:50;;;;;;;4.53;1.52;;;;;;;8.19;100.00;97812.41;5086806;28;20135;-86
2022/11/18 14:07:24;;;;;;;3.05;1.52;;;;;;;8.19;100.00;97815.13;5094372;28;20043;-86
2022/11/18 14:09:57;;;;;;;5.78;2.00;;;;;;;8.22;100.00;97803.88;5094201;28;20044;-84
2022/11/18 14:12:27;;;;;;;2.63;0.95;;;;;;;8.18;100.00;97808.03;5092772;28;20233;-86
2022/11/18 14:15:12;;;;;;;5.28;2.17;;;;;;;8.28;100.00;97821.16;5092444;28;20143;-86
2022/11/18 14:17:50;;;;;;;5.07;1.98;;;;;;;8.25;100.00;97816.16;5091739;28;20055;-85
2022/11/18 14:20:18;;;;;;;4.53;1.80;;;;;;;8.46;100.00;97826.03;5090369;28;20052;-85
2022/11/18 14:22:46;;;;;;;7.18;3.25;;;;;;;8.50;100.00;97824.59;5090921;28;20131;-85
2022/11/18 14:25:21;;;;;;;7.57;2.00;;;;;;;8.41;100.00;97809.56;5091602;28;20066;-86
2022/11/18 14:27:51;;;;;;;4.90;1.88;;;;;;;8.42;100.00;97822.88;5091651;28;20054;-86
2022/11/18 14:30:37;;;;;;;4.93;2.30;;;;;;;8.38;100.00;97820.78;5091910;28;20051;-85
2022/11/18 14:33:19;;;;;;;6.15;1.95;;;;;;;8.26;100.00;97825.94;5090180;28;20047;-85
2022/11/18 14:35:50;;;;;;;5.90;1.02;;;;;;;8.36;100.00;97855.38;5090664;28;20533;-86
2022/11/18 14:38:21;;;;;;;8.98;1.67;;;;;;;8.13;100.00;97830.28;5091179;28;20564;-85
2022/11/18 14:40:54;;;;;;;4.03;1.40;;;;;;;8.07;100.00;97839.22;5091220;28;20044;-86
2022/11/18 14:43:20;;;;;;;4.45;1.67;;;;;;;8.11;100.00;97824.25;5091544;28;20043;-86
2022/11/18 14:45:47;;;;;;;6.03;1.55;;;;;;;8.12;100.00;97838.59;5090975;28;20135;-86
2022/11/18 14:48:18;;;;;;;5.50;1.90;;;;;;;7.93;100.00;97832.06;5091294;28;20056;-85
2022/11/18 14:50:46;;;;;;;5.63;0.95;;;;;;;7.96;100.00;97862.28;5091012;28;20044;-84
2022/11/18 14:53:13;;;;;;;1.55;0.82;;;;;;;7.86;100.00;97866.34;5088632;28;20056;-83
2022/11/18 14:55:40;;;;;;;2.25;1.25;;;;;;;7.85;100.00;97870.94;5090454;28;20047;-84
2022/11/18 14:58:12;;;;;;;5.07;1.23;;;;;;;7.85;100.00;97870.13;5091121;28;20048;-84
2022/11/18 15:00:39;;;;;;;2.55;1.02;;;;;;;7.55;100.00;97854.94;5080587;28;20040;-84
2022/11/18 15:03:06;;;;;;;3.83;2.00;;;;;;;7.57;100.00;97855.59;5085588;28;20286;-84
2022/11/18 15:05:33;;;;;;;2.88;1.60;;;;;;;7.64;100.00;97868.31;5089082;28;20151;-85
2022/11/18 15:07:59;;;;;;;2.20;0.93;;;;;;;7.58;100.00;97865.34;5088501;28;20135;-85
2022/11/18 15:10:26;;;;;;;2.40;1.13;;;;;;;7.45;100.00;97846.31;5090764;28;20048;-84
2022/11/18 15:12:52;;;;;;;1.45;0.70;;;;;;;7.50;100.00;97868.22;5092342;28;20056;-83
2022/11/18 15:15:21;;;;;;;0.93;0.73;;;;;;;7.48;100.00;97875.69;5091407;28;20054;-84
2022/11/18 15:17:47;;;;;;;3.35;1.05;;;;;;;7.56;100.00;97885.53;5093343;28;20054;-85
2022/11/18 15:20:16;;;;;;;1.52;1.10;;;;;;;7.40;100.00;97871.25;5093203;28;20048;-85
2022/11/18 15:22:43;;;;;;;3.83;1.20;;;;;;;7.49;100.00;97868.41;5092503;28;20058;-85
2022/11/18 15:25:10;;;;;;;6.30;1.95;;;;;;;7.38;100.00;97873.34;5091961;28;20090;-85
2022/11/18 15:27:37;;;;;;;11.38;1.65;;;;;;;7.46;100.00;97883.16;5093092;28;20043;-86
2022/11/18 15:30:05;;;;;;;6.88;2.35;;;;;;;7.33;100.00;97873.09;5091587;28;20040;-83
2022/11/18 15:32:33;;;;;;;5.05;1.95;;;;;;;7.37;100.00;97893.28;5091996;28;20148;-85
2022/11/18 15:35:00;;;;;;;4.70;1.65;;;;;;;7.32;100.00;97876.00;5092452;28;20058;-85
2022/11/18 15:37:26;;;;;;;2.35;1.58;;;;;;;7.45;100.00;97889.59;5093037;28;20547;-85
2022/11/18 15:39:53;;;;;;;5.53;1.90;;;;;;;7.37;100.00;97876.22;5091244;28;20426;-84
2022/11/18 15:42:20;;;;;;;3.30;2.33;;;;;;;7.34;100.00;97890.16;5092155;28;20440;-85
2022/11/18 15:44:46;;;;;;;5.47;2.10;;;;;;;7.29;100.00;97885.31;5089759;28;20131;-85
2022/11/18 15:47:14;;;;;;;4.85;1.85;;;;;;;7.32;100.00;97905.72;5092530;28;20135;-85
2022/11/18 15:49:44;;;;;;;4.18;2.10;;;;;;;7.41;100.00;97909.97;5094263;28;20044;-85
2022/11/18 15:52:17;;;;;;;4.15;2.47;;;;;;;7.33;100.00;97893.88;5092697;28;20052;-84
2022/11/18 15:54:44;;;;;;;3.95;2.30;;;;;;;7.53;100.00;97915.69;5093012;28;20530;-85
2022/11/18 15:57:11;;;;;;;9.60;2.33;;;;;;;7.40;100.00;97906.41;5091177;28;20054;-85
2022/11/18 15:59:37;;;;;;;9.52;2.55;;;;;;;7.45;100.00;97919.34;5091240;28;20128;-85
2022/11/18 16:02:04;;;;;;;7.90;3.63;;;;;;;7.42;100.00;97919.72;5092065;28;20055;-85
2022/11/18 16:04:32;;;;;;;10.30;4.13;;;;;;;7.37;100.00;97914.91;5092255;28;20062;-84
2022/11/18 16:07:01;;;;;;;8.18;4.85;;;;;;;7.35;100.00;97899.94;5092219;28;20452;-84
2022/11/18 16:12:45;;;;;;;12.05;7.63;;;;;;;7.35;100.00;97908.88;5091689;28;20048;-85
2022/11/18 16:17:45;;;;;;;10.23;5.32;;;;;;;7.41;100.00;97926.19;5092388;28;20071;-85
2022/11/18 16:20:12;;;;;;;7.72;5.18;;;;;;;7.40;100.00;97928.03;5091752;28;20117;-85
2022/11/18 16:22:40;;;;;;;13.18;6.57;;;;;;;7.26;100.00;97926.25;5091705;28;20071;-85
2022/11/18 16:25:08;;;;;;;13.82;7.88;;;;;;;7.34;100.00;97942.34;5091328;28;20051;-85
2022/11/18 16:27:35;;;;;;;20.30;10.13;;;;;;;7.31;100.00;97934.63;5090556;28;20363;-84
2022/11/18 16:30:03;;;;;;;13.77;5.75;;;;;;;7.30;100.00;97941.06;5090431;28;20148;-85
2022/11/18 16:32:30;;;;;;;8.10;4.68;;;;;;;7.30;100.00;97934.81;5089497;28;20071;-85
2022/11/18 16:34:58;;;;;;;14.20;5.97;;;;;;;7.30;100.00;97934.81;5090148;28;20452;-85
2022/11/18 16:37:24;;;;;;;14.52;5.13;;;;;;;7.37;100.00;97936.53;5090973;28;20056;-85
2022/11/18 16:39:52;;;;;;;10.73;5.13;;;;;;;7.32;100.00;97941.72;5090528;28;20070;-85
2022/11/18 16:42:19;;;;;;;8.77;4.50;;;;;;;7.39;100.00;97936.34;5089127;28;20497;-85
2022/11/18 16:44:46;;;;;;;10.23;5.82;;;;;;;7.28;100.00;97928.78;5090209;28;20502;-85
2022/11/18 16:47:13;;;;;;;9.88;4.90;;;;;;;7.34;100.00;97928.00;5089361;28;20489;-84
2022/11/18 16:49:40;;;;;;;13.68;4.60;;;;;;;7.30;100.00;97941.06;5090959;28;20142;-85
2022/11/18 16:52:07;;;;;;;9.70;4.50;;;;;;;7.35;100.00;97935.09;5090862;28;20048;-85
2022/11/18 16:54:34;;;;;;;15.40;6.85;;;;;;;7.34;100.00;97942.34;5090321;28;20071;-85
2022/11/18 16:57:02;;;;;;;11.40;6.47;;;;;;;7.40;100.00;97952.38;5089105;28;20136;-85
2022/11/18 16:59:31;;;;;;;16.95;8.60;;;;;;;7.40;100.00;97946.13;5089374;28;20104;-85
2022/11/18 17:02:00;;;;;;;16.52;8.18;;;;;;;7.34;100.00;97942.34;5090725;28;20415;-85
2022/11/18 17:04:29;;;;;;;14.73;8.15;;;;;;;7.32;100.00;97944.41;5085942;28;20070;-84
2022/11/18 17:06:59;;;;;;;11.45;6.72;;;;;;;7.23;100.00;97935.59;5094384;28;20113;-84
2022/11/18 17:09:26;;;;;;;15.02;7.53;;;;;;;7.26;100.00;97943.31;5092953;28;20047;-84
2022/11/18 17:11:54;;;;;;;14.25;6.72;;;;;;;7.21;100.00;97958.44;5091888;28;20072;-83
2022/11/18 17:14:23;;;;;;;13.90;7.25;;;;;;;7.26;100.00;97967.63;5085448;28;20052;-83
2022/11/18 17:16:50;;;;;;;20.02;8.68;;;;;;;7.04;100.00;97957.84;5092551;28;20078;-83
2022/11/18 17:19:19;;;;;;;14.00;7.28;;;;;;;6.99;100.00;97966.53;5091392;28;20075;-84
2022/11/18 17:21:47;;;;;;;13.93;5.75;;;;;;;6.94;100.00;97954.63;5092031;28;20093;-84
2022/11/18 17:24:15;;;;;;;11.27;7.20;;;;;;;6.93;100.00;97966.47;5093690;28;20134;-84
2022/11/18 17:26:42;;;;;;;15.23;7.97;;;;;;;7.08;100.00;97969.97;5086755;28;20054;-84
2022/11/18 17:29:10;;;;;;;18.40;8.07;;;;;;;7.02;100.00;97968.84;5091573;28;20059;-84
2022/11/18 17:31:39;;;;;;;13.13;8.35;;;;;;;6.95;100.00;97956.31;5104101;28;20048;-84
2022/11/18 17:34:06;;;;;;;11.05;5.32;;;;;;;7.01;100.00;97977.16;5098124;28;20135;-84
2022/11/18 17:36:32;;;;;;;18.40;5.88;;;;;;;6.90;100.00;97992.81;5092294;28;20402;-84
2022/11/18 17:38:59;;;;;;;12.05;5.00;;;;;;;6.79;100.00;97963.63;5091389;28;20106;-84
2022/11/18 17:44:14;;;;;;;8.90;5.20;;;;;;;6.80;100.00;97983.34;5074545;28;20145;-84
2022/11/18 17:46:42;;;;;;;13.15;6.95;;;;;;;6.83;100.00;97988.38;5094263;28;20390;-84
2022/11/18 17:49:13;;;;;;;15.27;7.40;;;;;;;6.84;100.00;97992.75;5099804;28;20062;-84
2022/11/18 17:51:44;;;;;;;11.57;6.78;;;;;;;6.93;100.00;97993.50;5106775;28;20497;-84
2022/11/18 17:54:13;;;;;;;13.05;6.70;;;;;;;6.89;100.00;97980.38;5108972;28;20118;-84
2022/11/18 17:56:39;;;;;;;12.60;6.22;;;;;;;6.97;100.00;97992.06;5086907;28;20139;-83
2022/11/18 17:59:06;;;;;;;11.43;5.72;;;;;;;6.84;100.00;97971.97;5071313;28;20070;-84
2022/11/18 18:01:33;;;;;;;8.10;5.13;;;;;;;7.02;100.00;98001.28;5085783;28;20136;-83
2022/11/18 18:04:01;;;;;;;10.20;4.32;;;;;;;6.91;100.00;97993.69;5091393;28;20069;-84
2022/11/18 18:06:27;;;;;;;10.93;5.45;;;;;;;7.06;100.00;98005.28;5095308;28;20045;-84
2022/11/18 18:08:57;;;;;;;9.30;4.18;;;;;;;7.01;100.00;97996.06;5107024;28;20047;-84
2022/11/18 18:11:24;;;;;;;;;;;;;;;7.07;100.00;98006.94;5094582;28;20036;-83
2022/11/18 18:16:36;;;;;;;10.77;5.80;;;;;;;7.02;100.00;98011.25;5084711;28;20400;-84
2022/11/18 18:19:05;;;;;;;11.73;5.28;;;;;;;7.05;100.00;98014.41;5090543;28;20131;-84
2022/11/18 18:21:32;;;;;;;12.10;4.03;;;;;;;6.95;100.00;98003.06;5103799;28;20422;-84
2022/11/18 18:23:59;;;;;;;8.57;4.22;;;;;;;7.05;100.00;98010.88;5076858;28;20398;-83
2022/11/18 18:26:26;;;;;;;9.70;4.80;;;;;;;7.02;100.00;98016.66;5091560;28;20393;-84
2022/11/18 18:28:52;;;;;;;9.93;5.10;;;;;;;7.03;100.00;98011.06;5086426;28;20054;-86
2022/11/18 18:31:19;;;;;;;10.73;4.72;;;;;;;7.13;100.00;98021.56;5079083;28;20068;-83
2022/11/18 18:33:46;;;;;;;10.15;5.05;;;;;;;7.11;100.00;98014.69;5084469;28;20074;-85
2022/11/18 18:36:16;;;;;;;12.73;5.88;;;;;;;7.06;100.00;98028.75;5079666;28;20043;-84
2022/11/18 18:38:43;;;;;;;10.35;5.80;;;;;;;7.02;100.00;98008.56;5084883;28;20483;-84
2022/11/18 18:41:12;;;;;;;8.95;4.78;;;;;;;7.08;100.00;98024.00;5080549;28;20502;-84
2022/11/18 18:43:39;;;;;;;14.73;5.38;;;;;;;7.04;100.00;98020.84;5078871;28;20094;-84
2022/11/18 18:48:51;;;;;;;11.40;5.80;;;;;;;7.07;100.00;98028.56;5095881;28;22811;-83
2022/11/18 18:51:19;;;;;;;8.25;4.18;;;;;;;6.96;100.00;98012.03;5091408;28;20128;-83
2022/11/18 18:53:46;;;;;;;7.05;4.30;;;;;;;7.00;100.00;98014.16;5087516;28;20098;-83